Terminal Aerodrome Forecast
Issued by NWS Wilmington, OH

Current Version | Previous Version | Graphics & Text | Print | Product List | Glossary Off
Versions: 1 2 3 4 5 6 7 8 9 10 11 12 13 14 15 16 17 18 19 20 21

000
FTUS41 KILN 220300 AAA
TAFILN
TAF AMD
KILN 220323Z 2203/2224 22005KT 3SM BR FEW030 BKN120
      TEMPO 2204/2208 34020G32KT 2SM -TSRA OVC025CB
     FM220800 23004KT 5SM BR VCSH BKN012
     FM221300 23005KT P6SM VCSH BKN015
     FM221500 23007KT P6SM -SHRA VCTS BKN022CB
     FM221900 25009KT P6SM BKN035
     FM222300 25008KT P6SM VCSH BKN035=

USA.gov is the U.S. government's official web portal to all federal, state and local government web resources and services.